createdAt,value
2022-11-09T00:00:48.564Z,99763.88
2022-11-09T00:03:15.359Z,99765.25
2022-11-09T00:05:42.420Z,99766.53
2022-11-09T00:08:10.702Z,99768.81
2022-11-09T00:10:38.287Z,99760.25
2022-11-09T00:13:05.027Z,99748.63
2022-11-09T00:15:31.721Z,99747.16
2022-11-09T00:18:02.560Z,99757.06
2022-11-09T00:20:29.492Z,99756.69
2022-11-09T00:22:56.110Z,99758.09
2022-11-09T00:25:22.756Z,99751.13
2022-11-09T00:27:49.335Z,99748.41
2022-11-09T00:30:15.902Z,99744.22
2022-11-09T00:32:42.521Z,99747.47
2022-11-09T00:35:09.327Z,99751.53
2022-11-09T00:37:35.906Z,99730.38
2022-11-09T00:40:02.529Z,99737.22
2022-11-09T00:42:29.093Z,99736.13
2022-11-09T00:44:55.624Z,99741.94
2022-11-09T00:47:22.548Z,99752.72
2022-11-09T00:49:49.358Z,99742.03
2022-11-09T00:52:16.268Z,99745.25
2022-11-09T00:54:42.850Z,99744.22
2022-11-09T00:57:09.396Z,99738.44
2022-11-09T00:59:36.087Z,99743.78
2022-11-09T01:02:03.467Z,99745.78
2022-11-09T01:04:30.126Z,99745.53
2022-11-09T01:06:56.845Z,99762.84
2022-11-09T01:09:23.463Z,99753.78
2022-11-09T01:11:50.254Z,99752.56
2022-11-09T01:14:16.889Z,99756.38
2022-11-09T01:16:43.607Z,99768.63
2022-11-09T01:19:11.270Z,99763.34
2022-11-09T01:21:37.835Z,99769.72
2022-11-09T01:24:04.789Z,99766.94
2022-11-09T01:26:32.439Z,99762.53
2022-11-09T01:28:59.202Z,99763.69
2022-11-09T01:31:25.774Z,99759.38
2022-11-09T01:33:53.255Z,99763.31
2022-11-09T01:36:23.702Z,99760.53
2022-11-09T01:38:50.935Z,99764.38
2022-11-09T01:41:26.395Z,99766.00
2022-11-09T01:44:06.401Z,99766.66
2022-11-09T01:46:43.318Z,99776.66
2022-11-09T01:49:19.011Z,99768.22
2022-11-09T01:52:13.154Z,99776.06
2022-11-09T01:54:49.291Z,99779.94
2022-11-09T01:57:22.289Z,99777.06
2022-11-09T01:59:55.066Z,99772.13
2022-11-09T02:02:22.112Z,99769.09
2022-11-09T02:05:03.208Z,99768.81
2022-11-09T02:07:29.813Z,99766.56
2022-11-09T02:10:20.792Z,99774.16
2022-11-09T02:12:50.566Z,99776.81
2022-11-09T02:15:17.326Z,99771.06
2022-11-09T02:17:45.293Z,99763.00
2022-11-09T02:20:13.400Z,99757.78
2022-11-09T02:22:41.528Z,99770.44
2022-11-09T02:25:09.883Z,99771.16
2022-11-09T02:27:38.368Z,99766.25
2022-11-09T02:30:05.962Z,99754.03
2022-11-09T02:32:32.571Z,99756.72
2022-11-09T02:35:00.168Z,99753.84
2022-11-09T02:37:38.940Z,99756.91
2022-11-09T02:40:13.416Z,99738.66
2022-11-09T02:42:40.139Z,99749.56
2022-11-09T02:45:07.233Z,99755.00
2022-11-09T02:47:33.851Z,99748.88
2022-11-09T02:50:00.399Z,99749.19
2022-11-09T02:52:27.257Z,99742.69
2022-11-09T02:54:53.807Z,99750.16
2022-11-09T02:57:20.474Z,99753.00
2022-11-09T02:59:47.519Z,99764.22
2022-11-09T03:02:14.241Z,99760.31
2022-11-09T03:04:40.804Z,99757.16
2022-11-09T03:07:08.660Z,99747.66
2022-11-09T03:09:36.054Z,99759.00
2022-11-09T03:12:22.662Z,99751.47
2022-11-09T03:14:49.458Z,99758.97
2022-11-09T03:17:17.468Z,99767.00
2022-11-09T03:19:45.082Z,99776.19
2022-11-09T03:22:13.127Z,99789.38
2022-11-09T03:24:39.894Z,99783.59
2022-11-09T03:27:07.044Z,99787.34
2022-11-09T03:29:33.705Z,99785.81
2022-11-09T03:32:01.690Z,99793.63
2022-11-09T03:34:28.911Z,99795.06
2022-11-09T03:36:56.594Z,99805.50
2022-11-09T03:39:23.737Z,99802.22
2022-11-09T03:41:50.436Z,99802.72
2022-11-09T03:44:16.997Z,99802.38
2022-11-09T03:46:43.490Z,99804.84
2022-11-09T03:49:10.430Z,99818.97
2022-11-09T03:51:37.032Z,99810.91
2022-11-09T03:54:03.734Z,99814.72
2022-11-09T03:56:30.258Z,99816.59
2022-11-09T03:58:56.764Z,99811.94
2022-11-09T04:01:23.397Z,99804.03
2022-11-09T04:03:50.034Z,99809.00
2022-11-09T04:06:16.604Z,99808.22
2022-11-09T04:08:48.337Z,99794.84
2022-11-09T04:11:19.114Z,99786.78
2022-11-09T04:13:45.928Z,99798.59
2022-11-09T04:16:12.570Z,99795.06
2022-11-09T04:18:39.135Z,99801.78
2022-11-09T04:21:05.768Z,99798.09
2022-11-09T04:23:32.315Z,99800.47
2022-11-09T04:25:59.648Z,99810.22
2022-11-09T04:28:26.684Z,99800.56
2022-11-09T04:30:53.374Z,99801.06
2022-11-09T04:33:20.388Z,99799.09
2022-11-09T04:35:47.249Z,99805.34
2022-11-09T04:38:14.434Z,99804.69
2022-11-09T04:40:41.340Z,99804.03
2022-11-09T04:43:11.989Z,99809.91
2022-11-09T04:45:38.855Z,99814.47
2022-11-09T04:48:07.135Z,99820.34
2022-11-09T04:50:34.751Z,99825.56
2022-11-09T04:53:13.853Z,99829.00
2022-11-09T04:55:41.144Z,99825.56
2022-11-09T04:58:08.109Z,99836.69
2022-11-09T05:00:35.759Z,99837.28
2022-11-09T05:03:03.651Z,99843.75
2022-11-09T05:05:30.744Z,99841.84
2022-11-09T05:07:57.328Z,99838.97
2022-11-09T05:10:23.947Z,99842.75
2022-11-09T05:12:50.498Z,99837.94
2022-11-09T05:15:17.158Z,99842.91
2022-11-09T05:17:43.668Z,99848.13
2022-11-09T05:20:10.857Z,99853.28
2022-11-09T05:22:59.037Z,99845.13
2022-11-09T05:25:25.652Z,99855.78
2022-11-09T05:27:52.897Z,99859.84
2022-11-09T05:30:19.633Z,99858.47
2022-11-09T05:32:46.286Z,99849.31
2022-11-09T05:35:13.066Z,99854.63
2022-11-09T05:37:39.804Z,99843.34
2022-11-09T05:40:08.428Z,99856.63
2022-11-09T05:42:38.505Z,99841.56
2022-11-09T05:45:35.744Z,99858.78
2022-11-09T05:47:53.046Z,99858.03
2022-11-09T05:50:19.664Z,99854.44
2022-11-09T05:52:50.052Z,99859.66
2022-11-09T05:55:16.778Z,99847.53
2022-11-09T05:57:43.321Z,99849.81
2022-11-09T06:00:11.209Z,99851.88
2022-11-09T06:02:39.612Z,99837.09
2022-11-09T06:05:06.421Z,99847.38
2022-11-09T06:07:33.303Z,99835.69
2022-11-09T06:10:00.027Z,99829.97
2022-11-09T06:12:26.864Z,99838.72
2022-11-09T06:14:53.404Z,99836.28
2022-11-09T06:17:20.029Z,99834.38
2022-11-09T06:19:46.560Z,99838.38
2022-11-09T06:22:13.422Z,99837.53
2022-11-09T06:24:40.274Z,99836.59
2022-11-09T06:27:06.949Z,99840.94
2022-11-09T06:29:33.681Z,99836.25
2022-11-09T06:32:00.429Z,99848.50
2022-11-09T06:34:27.064Z,99847.59
2022-11-09T06:36:53.702Z,99854.88
2022-11-09T06:39:20.286Z,99863.19
2022-11-09T06:41:47.792Z,99867.91
2022-11-09T06:44:15.172Z,99864.03
2022-11-09T06:46:41.763Z,99866.94
2022-11-09T06:49:08.300Z,99864.34
2022-11-09T06:51:35.025Z,99876.72
2022-11-09T06:54:01.607Z,99869.72
2022-11-09T06:56:28.265Z,99873.09
2022-11-09T06:58:55.389Z,99871.66
2022-11-09T07:01:26.971Z,99878.72
2022-11-09T07:03:53.763Z,99875.84
2022-11-09T07:06:20.478Z,99874.28
2022-11-09T07:08:47.036Z,99871.09
2022-11-09T07:11:19.511Z,99872.22
2022-11-09T07:13:56.314Z,99876.16
2022-11-09T07:16:24.300Z,99883.84
2022-11-09T07:18:51.007Z,99883.66
2022-11-09T07:21:17.914Z,99888.56
2022-11-09T07:23:47.422Z,99888.91
2022-11-09T07:26:14.256Z,99886.22
2022-11-09T07:28:41.101Z,99890.31
2022-11-09T07:31:08.306Z,99885.94
2022-11-09T07:33:35.091Z,99886.03
2022-11-09T07:36:03.083Z,99892.06
2022-11-09T07:38:30.092Z,99892.06
2022-11-09T07:41:00.965Z,99893.63
2022-11-09T07:43:28.680Z,99891.31
2022-11-09T07:45:57.333Z,99896.84
2022-11-09T07:48:24.087Z,99904.56
2022-11-09T07:50:50.670Z,99904.19
2022-11-09T07:53:17.720Z,99910.41
2022-11-09T07:55:44.604Z,99904.50
2022-11-09T07:58:13.693Z,99924.53
2022-11-09T08:00:41.833Z,99915.72
2022-11-09T08:03:09.175Z,99918.91
2022-11-09T08:05:36.534Z,99917.91
2022-11-09T08:08:06.454Z,99919.13
2022-11-09T08:10:34.764Z,99924.56
2022-11-09T08:13:13.263Z,99917.53
2022-11-09T08:15:41.476Z,99919.97
2022-11-09T08:18:12.297Z,99915.38
2022-11-09T08:20:39.398Z,99922.94
2022-11-09T08:23:06.492Z,99919.47
2022-11-09T08:25:34.443Z,99917.19
2022-11-09T08:28:01.715Z,99927.34
2022-11-09T08:30:28.385Z,99927.81
2022-11-09T08:32:55.316Z,99926.84
2022-11-09T08:35:23.866Z,99935.53
2022-11-09T08:37:52.270Z,99942.47
2022-11-09T08:40:24.244Z,99938.88
2022-11-09T08:42:51.832Z,99941.63
2022-11-09T08:45:19.598Z,99946.44
2022-11-09T08:47:46.579Z,99944.63
2022-11-09T08:50:14.642Z,99948.97
2022-11-09T08:52:41.277Z,99952.69
2022-11-09T08:55:08.322Z,99952.69
2022-11-09T08:57:35.011Z,99945.91
2022-11-09T09:00:01.677Z,99952.69
2022-11-09T09:02:28.377Z,99952.16
2022-11-09T09:04:55.217Z,99954.94
2022-11-09T09:07:22.090Z,99965.19
2022-11-09T09:09:49.044Z,99958.59
2022-11-09T09:12:15.854Z,99952.16
2022-11-09T09:14:42.397Z,99960.88
2022-11-09T09:17:09.153Z,99961.34
2022-11-09T09:19:35.844Z,99958.44
2022-11-09T09:22:02.583Z,99956.91
2022-11-09T09:24:29.186Z,99957.50
2022-11-09T09:26:55.929Z,99966.16
2022-11-09T09:29:22.672Z,99967.88
2022-11-09T09:31:49.286Z,99958.38
2022-11-09T09:34:15.946Z,99960.88
2022-11-09T09:36:47.665Z,99958.22
2022-11-09T09:39:15.381Z,99966.03
2022-11-09T09:42:19.966Z,99971.44
2022-11-09T09:44:54.929Z,99967.34
2022-11-09T09:47:33.424Z,99974.88
2022-11-09T09:50:09.471Z,99975.38
2022-11-09T09:52:54.135Z,99969.00
2022-11-09T09:55:37.192Z,99979.09
2022-11-09T09:58:18.552Z,99983.94
2022-11-09T10:00:45.322Z,99981.63
2022-11-09T10:03:18.607Z,99991.69
2022-11-09T10:05:55.222Z,99988.47
2022-11-09T10:08:45.352Z,99993.72
2022-11-09T10:11:44.231Z,99998.53
2022-11-09T10:14:32.387Z,99992.75
2022-11-09T10:17:20.722Z,100003.75
2022-11-09T10:20:02.415Z,99998.47
2022-11-09T10:23:06.733Z,100000.53
2022-11-09T10:26:02.378Z,99997.19
2022-11-09T10:28:42.369Z,99991.06
2022-11-09T10:31:20.560Z,99993.28
2022-11-09T10:33:54.291Z,99993.13
2022-11-09T10:36:31.564Z,99994.19
2022-11-09T10:39:01.403Z,99989.19
2022-11-09T10:41:46.991Z,99997.53
2022-11-09T10:44:32.403Z,99996.53
2022-11-09T10:47:18.880Z,100001.91
2022-11-09T10:50:16.282Z,99994.47
2022-11-09T10:53:14.750Z,100001.00
2022-11-09T10:56:21.349Z,99994.97
2022-11-09T10:59:31.538Z,99994.28
2022-11-09T11:02:26.141Z,100006.09
2022-11-09T11:05:17.747Z,100005.72
2022-11-09T11:08:22.957Z,99993.59
2022-11-09T11:11:37.106Z,100001.28
2022-11-09T11:14:33.241Z,99991.47
2022-11-09T11:17:24.944Z,100002.09
2022-11-09T11:20:29.692Z,100000.09
2022-11-09T11:23:23.020Z,100001.34
2022-11-09T11:26:38.035Z,100010.34
2022-11-09T11:29:58.368Z,99997.66
2022-11-09T11:32:49.865Z,100013.19
2022-11-09T11:35:44.021Z,100006.84
2022-11-09T11:38:36.357Z,100016.28
2022-11-09T11:41:43.361Z,100014.06
2022-11-09T11:44:28.318Z,100019.09
2022-11-09T11:47:21.060Z,100007.50
2022-11-09T11:50:25.218Z,100006.25
2022-11-09T11:53:28.333Z,100023.25
2022-11-09T11:56:24.437Z,100025.84
2022-11-09T11:59:27.981Z,100033.53
2022-11-09T12:02:46.926Z,100028.53
2022-11-09T12:06:06.327Z,100026.25
2022-11-09T12:09:36.109Z,100013.84
2022-11-09T12:12:49.236Z,100026.94
2022-11-09T12:16:02.512Z,100027.53
2022-11-09T12:19:35.320Z,100025.09
2022-11-09T12:22:37.532Z,100030.13
2022-11-09T12:25:29.294Z,100023.88
2022-11-09T12:28:52.454Z,100036.66
2022-11-09T12:32:04.694Z,100019.47
2022-11-09T12:35:16.474Z,100023.81
2022-11-09T12:38:29.190Z,100027.56
2022-11-09T12:41:19.117Z,100028.56
2022-11-09T12:44:17.238Z,100019.75
2022-11-09T12:47:17.117Z,100023.63
2022-11-09T12:50:02.978Z,100027.50
2022-11-09T12:52:49.126Z,100040.56
2022-11-09T12:55:50.476Z,100039.09
2022-11-09T12:58:38.667Z,100036.41
2022-11-09T13:01:27.140Z,100033.03
2022-11-09T13:04:18.416Z,100028.91
2022-11-09T13:07:03.836Z,100029.38
2022-11-09T13:09:58.768Z,100036.41
2022-11-09T13:12:44.048Z,100037.91
2022-11-09T13:15:32.818Z,100055.19
2022-11-09T13:18:33.676Z,100036.97
2022-11-09T13:21:21.236Z,100056.41
2022-11-09T13:24:31.328Z,100046.38
2022-11-09T13:27:41.308Z,100051.06
2022-11-09T13:30:40.113Z,100043.94
2022-11-09T13:33:28.341Z,100049.22
2022-11-09T13:36:16.915Z,100048.78
2022-11-09T13:39:27.248Z,100047.00
2022-11-09T13:42:34.415Z,100048.94
2022-11-09T13:45:50.497Z,100043.13
2022-11-09T13:48:50.651Z,100042.84
2022-11-09T13:51:35.874Z,100057.56
2022-11-09T13:54:37.509Z,100055.59
2022-11-09T13:57:24.831Z,100067.88
2022-11-09T14:00:19.498Z,100075.81
2022-11-09T14:03:23.910Z,100070.91
2022-11-09T14:06:12.231Z,100072.94
2022-11-09T14:08:58.781Z,100078.66
2022-11-09T14:12:08.724Z,100070.16
2022-11-09T14:15:00.124Z,100071.22
2022-11-09T14:18:07.819Z,100074.28
2022-11-09T14:21:27.242Z,100079.81
2022-11-09T14:24:15.209Z,100081.59
2022-11-09T14:27:11.287Z,100090.25
2022-11-09T14:29:59.194Z,100085.66
2022-11-09T14:32:50.287Z,100092.41
2022-11-09T14:35:37.183Z,100102.50
2022-11-09T14:38:35.428Z,100101.75
2022-11-09T14:41:25.144Z,100086.13
2022-11-09T14:44:35.681Z,100102.59
2022-11-09T14:47:34.264Z,100115.03
2022-11-09T14:50:29.369Z,100104.22
2022-11-09T14:53:22.401Z,100115.53
2022-11-09T14:56:11.855Z,100116.25
2022-11-09T14:58:57.979Z,100122.53
2022-11-09T15:02:04.968Z,100133.84
2022-11-09T15:05:01.011Z,100135.31
2022-11-09T15:07:48.028Z,100134.00
2022-11-09T15:10:34.280Z,100125.56
2022-11-09T15:13:28.360Z,100143.25
2022-11-09T15:16:31.202Z,100124.09
2022-11-09T15:19:39.750Z,100140.84
2022-11-09T15:22:44.408Z,100142.28
2022-11-09T15:25:35.127Z,100158.44
2022-11-09T15:28:30.947Z,100152.06
2022-11-09T15:31:19.283Z,100150.63
2022-11-09T15:34:26.703Z,100162.19
2022-11-09T15:37:42.786Z,100159.66
2022-11-09T15:40:27.918Z,100156.63
2022-11-09T15:43:13.378Z,100165.94
2022-11-09T15:46:00.297Z,100162.69
2022-11-09T15:48:46.216Z,100180.41
2022-11-09T15:51:31.908Z,100180.16
2022-11-09T15:54:17.174Z,100187.28
2022-11-09T15:57:02.326Z,100196.78
2022-11-09T15:59:49.267Z,100198.72
2022-11-09T16:02:34.674Z,100200.16
2022-11-09T16:05:20.055Z,100202.66
2022-11-09T16:08:07.496Z,100214.47
2022-11-09T16:10:53.324Z,100221.69
2022-11-09T16:13:38.929Z,100224.28
2022-11-09T16:16:23.988Z,100227.63
2022-11-09T16:19:14.109Z,100225.09
2022-11-09T16:22:02.028Z,100218.28
2022-11-09T16:24:48.201Z,100222.00
2022-11-09T16:27:49.656Z,100222.09
2022-11-09T16:30:35.631Z,100237.13
2022-11-09T16:33:21.006Z,100241.81
2022-11-09T16:36:11.162Z,100244.88
2022-11-09T16:38:57.798Z,100255.97
2022-11-09T16:41:46.765Z,100255.78
2022-11-09T16:44:35.078Z,100253.38
2022-11-09T16:47:20.986Z,100260.47
2022-11-09T16:50:06.598Z,100263.00
2022-11-09T16:52:52.163Z,100266.72
2022-11-09T16:55:37.148Z,100266.59
2022-11-09T16:58:22.939Z,100274.69
2022-11-09T17:01:12.390Z,100272.63
2022-11-09T17:03:58.056Z,100283.84
2022-11-09T17:06:43.348Z,100284.22
2022-11-09T17:09:33.696Z,100285.50
2022-11-09T17:12:19.227Z,100297.38
2022-11-09T17:15:04.647Z,100297.78
2022-11-09T17:17:49.690Z,100303.09
2022-11-09T17:20:34.757Z,100316.75
2022-11-09T17:23:20.359Z,100316.63
2022-11-09T17:26:07.760Z,100324.31
2022-11-09T17:28:53.014Z,100317.56
2022-11-09T17:31:38.496Z,100314.47
2022-11-09T17:34:23.954Z,100321.16
2022-11-09T17:37:09.053Z,100322.50
2022-11-09T17:39:54.307Z,100329.56
2022-11-09T17:42:39.838Z,100327.72
2022-11-09T17:45:25.925Z,100322.69
2022-11-09T17:48:11.224Z,100334.50
2022-11-09T17:50:57.421Z,100342.19
2022-11-09T17:53:43.420Z,100332.38
2022-11-09T17:56:28.968Z,100332.84
2022-11-09T17:59:14.043Z,100341.69
2022-11-09T18:01:59.518Z,100353.13
2022-11-09T18:04:44.896Z,100355.94
2022-11-09T18:07:31.017Z,100360.00
2022-11-09T18:10:16.795Z,100359.94
2022-11-09T18:13:02.330Z,100363.34
2022-11-09T18:15:47.658Z,100363.34
2022-11-09T18:18:33.488Z,100383.19
2022-11-09T18:21:19.850Z,100381.56
2022-11-09T18:24:05.552Z,100386.41
2022-11-09T18:26:51.614Z,100394.44
2022-11-09T18:29:37.086Z,100392.41
2022-11-09T18:32:22.360Z,100405.19
2022-11-09T18:35:07.788Z,100411.78
2022-11-09T18:37:52.896Z,100408.63
2022-11-09T18:40:38.210Z,100422.28
2022-11-09T18:43:23.604Z,100431.88
2022-11-09T18:46:10.655Z,100432.53
2022-11-09T18:48:55.712Z,100433.66
2022-11-09T18:51:40.757Z,100435.34
2022-11-09T18:54:26.279Z,100439.75
2022-11-09T18:57:13.785Z,100448.78
2022-11-09T19:00:03.158Z,100445.69
2022-11-09T19:02:48.200Z,100442.00
2022-11-09T19:05:36.702Z,100444.78
2022-11-09T19:08:42.155Z,100459.75
2022-11-09T19:11:27.715Z,100451.16
2022-11-09T19:14:13.009Z,100451.34
2022-11-09T19:16:58.169Z,100465.81
2022-11-09T19:19:43.405Z,100467.13
2022-11-09T19:22:29.917Z,100468.88
2022-11-09T19:25:15.416Z,100466.22
2022-11-09T19:28:00.797Z,100476.53
2022-11-09T19:30:46.077Z,100481.19
2022-11-09T19:33:31.461Z,100489.19
2022-11-09T19:36:33.288Z,100496.63
2022-11-09T19:39:18.442Z,100496.19
2022-11-09T19:42:03.536Z,100499.97
2022-11-09T19:44:52.204Z,100500.84
2022-11-09T19:47:41.182Z,100510.00
2022-11-09T19:50:26.287Z,100513.75
2022-11-09T19:53:11.396Z,100517.97
2022-11-09T19:55:58.996Z,100517.31
2022-11-09T19:58:48.681Z,100520.81
2022-11-09T20:01:34.128Z,100524.00
2022-11-09T20:04:19.321Z,100528.44
2022-11-09T20:07:04.507Z,100522.69
2022-11-09T20:09:50.031Z,100539.16
2022-11-09T20:12:50.449Z,100540.22
2022-11-09T20:15:36.343Z,100548.97
2022-11-09T20:18:23.550Z,100538.75
2022-11-09T20:21:09.121Z,100550.69
2022-11-09T20:23:54.647Z,100560.47
2022-11-09T20:26:40.313Z,100557.91
2022-11-09T20:29:25.754Z,100561.69
2022-11-09T20:32:12.469Z,100573.84
2022-11-09T20:34:58.172Z,100576.00
2022-11-09T20:37:43.511Z,100581.72
2022-11-09T20:40:28.602Z,100598.38
2022-11-09T20:43:13.598Z,100592.44
2022-11-09T20:46:34.331Z,100594.97
2022-11-09T20:49:21.171Z,100601.34
2022-11-09T20:52:06.257Z,100606.31
2022-11-09T20:54:51.259Z,100606.09
2022-11-09T20:57:36.520Z,100618.84
2022-11-09T21:00:24.518Z,100617.16
2022-11-09T21:03:10.191Z,100626.28
2022-11-09T21:05:59.118Z,100627.56
2022-11-09T21:08:52.383Z,100631.22
2022-11-09T21:11:57.536Z,100633.31
2022-11-09T21:14:42.602Z,100639.94
2022-11-09T21:17:27.654Z,100643.97
2022-11-09T21:20:12.899Z,100640.13
2022-11-09T21:23:13.660Z,100642.28
2022-11-09T21:31:17.535Z,100650.34
2022-11-09T21:34:03.069Z,100650.34
2022-11-09T21:36:48.323Z,100646.72
2022-11-09T21:39:34.053Z,100651.41
2022-11-09T21:42:19.687Z,100655.84
2022-11-09T21:45:05.219Z,100659.06
2022-11-09T21:47:50.781Z,100657.13
2022-11-09T21:50:35.756Z,100663.97
2022-11-09T21:53:21.344Z,100671.59
2022-11-09T21:56:07.418Z,100661.19
2022-11-09T21:58:52.956Z,100670.34
2022-11-09T22:01:38.225Z,100673.72
2022-11-09T22:04:23.496Z,100683.50
2022-11-09T22:07:09.462Z,100681.38
2022-11-09T22:10:11.613Z,100693.50
2022-11-09T22:13:15.889Z,100697.09
2022-11-09T22:16:09.644Z,100691.59
2022-11-09T22:19:13.286Z,100694.97
2022-11-09T22:21:58.581Z,100689.44
2022-11-09T22:24:43.900Z,100685.63
2022-11-09T22:27:32.970Z,100693.06
2022-11-09T22:30:18.686Z,100692.03
2022-11-09T22:33:04.159Z,100709.63
2022-11-09T22:35:56.490Z,100704.97
2022-11-09T22:38:42.688Z,100705.19
2022-11-09T22:41:28.105Z,100704.75
2022-11-09T22:44:13.595Z,100713.66
2022-11-09T22:46:59.009Z,100722.16
2022-11-09T22:49:44.110Z,100720.25
2022-11-09T22:52:29.193Z,100722.59
2022-11-09T22:55:14.290Z,100724.72
2022-11-09T22:57:59.535Z,100729.19
2022-11-09T23:00:44.605Z,100727.66
2022-11-09T23:03:30.180Z,100723.66
2022-11-09T23:06:21.809Z,100738.31
2022-11-09T23:09:07.006Z,100750.63
2022-11-09T23:11:52.239Z,100746.38
2022-11-09T23:14:56.057Z,100748.09
2022-11-09T23:18:00.027Z,100749.19
2022-11-09T23:20:45.625Z,100757.69
2022-11-09T23:23:30.879Z,100757.03
2022-11-09T23:26:16.617Z,100758.09
2022-11-09T23:29:01.696Z,100761.09
2022-11-09T23:31:46.947Z,100755.34
2022-11-09T23:34:32.001Z,100766.84
2022-11-09T23:37:17.344Z,100775.75
2022-11-09T23:40:03.013Z,100784.22
2022-11-09T23:42:49.059Z,100784.22
2022-11-09T23:45:35.635Z,100799.94
2022-11-09T23:48:21.082Z,100806.09
2022-11-09T23:51:07.627Z,100803.94
2022-11-09T23:53:52.871Z,100807.31
2022-11-09T23:56:38.110Z,100805.88
2022-11-09T23:59:23.314Z,100811.97
